Time;durP1;ratioP1;P1;durP2;ratioP2;P2;SDS_P1;SDS_P2;PMS_P1;PMS_P2;Temp;Humidity;BMP_temperature;BMP_pressure;BME280_temperature;BME280_humidity;BME280_pressure;Samples;Min_cycle;Max_cycle;Signal;HPM_P1;HPM_P2
2022/09/29 00:01:22;;;;;;;4.57;2.75;;;;;;;8.51;100.00;99135.97;5200663;28;20056;-74
2022/09/29 00:03:52;;;;;;;5.93;2.90;;;;;;;8.40;100.00;99132.22;5200914;28;20507;-74
2022/09/29 00:06:22;;;;;;;4.90;3.10;;;;;;;8.33;100.00;99139.47;5200284;28;20023;-74
2022/09/29 00:08:53;;;;;;;5.57;3.10;;;;;;;8.31;100.00;99133.50;5204994;28;20040;-74
2022/09/29 00:11:23;;;;;;;6.63;3.38;;;;;;;8.22;100.00;99133.94;5209075;28;20028;-74
2022/09/29 00:13:54;;;;;;;5.43;3.28;;;;;;;8.20;100.00;99130.59;5200611;28;20213;-74
2022/09/29 00:16:24;;;;;;;8.93;3.20;;;;;;;8.09;100.00;99132.00;5200443;28;20289;-75
2022/09/29 00:18:54;;;;;;;10.18;3.08;;;;;;;8.18;100.00;99134.19;5200175;28;20033;-74
2022/09/29 00:21:25;;;;;;;5.45;3.47;;;;;;;8.07;100.00;99137.25;5200523;28;20055;-75
2022/09/29 00:23:55;;;;;;;5.38;3.42;;;;;;;8.10;100.00;99131.06;5199820;28;20156;-75
2022/09/29 00:26:25;;;;;;;4.40;2.70;;;;;;;8.02;100.00;99134.03;5185261;28;20312;-73
2022/09/29 00:28:57;;;;;;;10.43;3.60;;;;;;;8.05;100.00;99128.69;5192479;28;20300;-75
2022/09/29 00:31:30;;;;;;;5.38;3.33;;;;;;;8.04;100.00;99123.59;5200937;28;20037;-75
2022/09/29 00:34:00;;;;;;;4.30;2.90;;;;;;;8.15;100.00;99132.53;5200347;28;20037;-75
2022/09/29 00:36:30;;;;;;;5.55;2.90;;;;;;;8.17;100.00;99133.31;5181909;28;20025;-74
2022/09/29 00:39:01;;;;;;;5.45;3.13;;;;;;;7.87;100.00;99132.19;5204708;28;20044;-74
2022/09/29 00:41:34;;;;;;;5.80;3.40;;;;;;;7.88;100.00;99127.84;5209409;28;20041;-74
2022/09/29 00:44:13;;;;;;;6.85;3.50;;;;;;;7.83;100.00;99119.38;5183203;28;20167;-75
2022/09/29 00:46:48;;;;;;;5.15;3.33;;;;;;;7.77;100.00;99120.56;5185147;28;20025;-74
2022/09/29 00:49:23;;;;;;;4.80;3.22;;;;;;;7.84;100.00;99124.53;5193481;28;20395;-74
2022/09/29 00:52:11;;;;;;;4.50;2.90;;;;;;;7.87;100.00;99123.56;5193844;28;20037;-75
2022/09/29 00:54:47;;;;;;;4.60;2.60;;;;;;;7.78;100.00;99116.19;5195296;28;20036;-75
2022/09/29 00:57:24;;;;;;;5.32;2.72;;;;;;;7.66;100.00;99122.81;5188381;28;20095;-75
2022/09/29 01:00:04;;;;;;;4.00;2.50;;;;;;;7.73;100.00;99121.59;5187699;28;20035;-74
2022/09/29 01:02:40;;;;;;;4.85;2.70;;;;;;;7.62;100.00;99118.66;5182845;28;20471;-74
2022/09/29 01:05:13;;;;;;;;;;;;;;;7.55;100.00;99125.03;5196682;28;20021;-74
2022/09/29 01:07:45;;;;;;;5.50;2.90;;;;;;;7.39;100.00;99126.66;5199671;28;19944;-74
2022/09/29 01:10:16;;;;;;;5.03;3.00;;;;;;;7.43;100.00;99125.63;5209867;28;20029;-74
2022/09/29 01:12:47;;;;;;;4.65;2.83;;;;;;;7.39;100.00;99128.44;5202602;28;20121;-74
2022/09/29 01:15:20;;;;;;;4.53;2.78;;;;;;;7.32;100.00;99135.66;5200115;28;20021;-74
2022/09/29 01:17:50;;;;;;;5.32;3.05;;;;;;;7.34;100.00;99135.63;5199987;28;20108;-75
2022/09/29 01:20:22;;;;;;;6.85;3.20;;;;;;;7.37;100.00;99141.50;5199712;28;20112;-74
2022/09/29 01:22:58;;;;;;;4.75;3.08;;;;;;;7.34;100.00;99141.63;5199860;28;20040;-74
2022/09/29 01:25:55;;;;;;;5.78;3.45;;;;;;;7.31;100.00;99133.13;5182298;28;20033;-74
2022/09/29 01:28:41;;;;;;;4.35;3.08;;;;;;;7.35;100.00;99143.31;5189917;28;20033;-74
2022/09/29 01:31:21;;;;;;;5.82;3.10;;;;;;;7.30;100.00;99139.25;5200025;28;20035;-74
2022/09/29 01:34:00;;;;;;;4.60;3.03;;;;;;;7.26;100.00;99149.88;5200317;28;20029;-74
2022/09/29 01:36:44;;;;;;;4.15;2.80;;;;;;;7.31;100.00;99148.72;5181376;28;20503;-74
2022/09/29 01:39:42;;;;;;;5.65;3.20;;;;;;;7.08;100.00;99148.09;5196726;28;20032;-74
2022/09/29 01:42:25;;;;;;;6.65;3.35;;;;;;;7.01;100.00;99155.31;5196584;28;20025;-74
2022/09/29 01:45:11;;;;;;;6.05;3.30;;;;;;;7.04;100.00;99152.56;5226741;22;20465;-71
2022/09/29 01:47:48;;;;;;;5.53;3.25;;;;;;;7.02;100.00;99150.94;5204827;28;20029;-72
2022/09/29 01:50:34;;;;;;;5.00;3.35;;;;;;;7.06;100.00;99150.75;5223126;28;20064;-72
2022/09/29 01:53:12;;;;;;;4.15;2.75;;;;;;;7.03;100.00;99147.41;5211365;28;20406;-72
2022/09/29 01:55:50;;;;;;;4.78;3.03;;;;;;;6.95;100.00;99147.75;5220519;28;20441;-72
2022/09/29 01:58:35;;;;;;;6.00;3.58;;;;;;;6.90;100.00;99149.72;5231711;28;20025;-74
2022/09/29 02:01:10;;;;;;;7.18;3.47;;;;;;;7.04;100.00;99149.97;5220626;28;20497;-74
2022/09/29 02:03:46;;;;;;;5.68;3.97;;;;;;;6.91;100.00;99146.22;5220053;28;20086;-74
2022/09/29 02:06:23;;;;;;;5.35;3.42;;;;;;;6.99;100.00;99143.28;5223747;28;20052;-74
2022/09/29 02:08:59;;;;;;;4.15;2.97;;;;;;;6.86;100.00;99148.19;5223852;28;20083;-74
2022/09/29 02:11:32;;;;;;;7.32;3.47;;;;;;;6.82;100.00;99150.97;5223380;28;20033;-74
2022/09/29 02:14:12;;;;;;;4.93;3.40;;;;;;;6.80;100.00;99157.97;5223526;28;20027;-74
2022/09/29 02:16:48;;;;;;;4.97;3.40;;;;;;;6.76;100.00;99152.06;5219910;28;20039;-74
2022/09/29 02:19:23;;;;;;;4.60;3.40;;;;;;;6.73;100.00;99156.56;5223402;28;20481;-74
2022/09/29 02:21:54;;;;;;;;;;;;;;;6.65;100.00;99158.63;5223877;28;20387;-74
2022/09/29 02:24:24;;;;;;;5.32;3.67;;;;;;;6.66;100.00;99149.94;5223165;28;19919;-74
2022/09/29 02:26:55;;;;;;;5.18;3.72;;;;;;;6.67;100.00;99164.59;5208214;28;20470;-74
2022/09/29 02:29:26;;;;;;;4.65;3.17;;;;;;;6.80;100.00;99157.97;5232574;28;20028;-74
2022/09/29 02:32:00;;;;;;;5.30;3.47;;;;;;;6.76;100.00;99162.44;5224772;28;20044;-74
2022/09/29 02:34:34;;;;;;;6.05;3.38;;;;;;;6.65;100.00;99162.09;5224678;28;20036;-74
2022/09/29 02:37:21;;;;;;;6.63;3.97;;;;;;;6.64;100.00;99160.41;5216389;28;20025;-74
2022/09/29 02:40:08;;;;;;;4.80;3.10;;;;;;;6.58;100.00;99163.22;5221242;28;20441;-74
2022/09/29 02:42:55;;;;;;;6.93;3.88;;;;;;;6.55;100.00;99160.78;5219104;28;20029;-74
2022/09/29 02:45:48;;;;;;;5.82;3.53;;;;;;;6.55;100.00;99158.19;5225872;28;20502;-74
2022/09/29 02:48:37;;;;;;;5.90;3.30;;;;;;;6.52;100.00;99157.44;5223190;28;20036;-74
2022/09/29 02:51:15;;;;;;;7.90;3.65;;;;;;;6.49;100.00;99163.63;5211332;28;20021;-74
2022/09/29 02:54:06;;;;;;;5.03;3.20;;;;;;;6.51;100.00;99166.16;5222907;28;20033;-73
2022/09/29 02:56:36;;;;;;;5.45;3.22;;;;;;;6.55;100.00;99172.88;5223162;28;20638;-73
2022/09/29 02:59:33;;;;;;;5.30;3.20;;;;;;;6.42;100.00;99164.78;5230533;28;20071;-73
2022/09/29 03:02:03;;;;;;;5.38;3.33;;;;;;;6.43;100.00;99169.06;5222724;28;20276;-73
2022/09/29 03:04:33;;;;;;;5.72;3.72;;;;;;;6.42;100.00;99171.72;5222421;28;20391;-74
2022/09/29 03:07:04;;;;;;;5.25;3.33;;;;;;;6.36;100.00;99174.56;5221807;28;20212;-74
2022/09/29 03:09:34;;;;;;;5.47;3.28;;;;;;;6.39;100.00;99180.47;5223041;28;20020;-73
2022/09/29 03:12:04;;;;;;;5.22;3.40;;;;;;;6.33;100.00;99185.06;5222183;28;20031;-73
2022/09/29 03:14:35;;;;;;;5.43;3.63;;;;;;;6.27;100.00;99183.56;5226156;28;20397;-73
2022/09/29 03:17:05;;;;;;;6.50;3.67;;;;;;;6.32;100.00;99175.59;5231024;28;20434;-73
2022/09/29 03:19:35;;;;;;;4.65;3.50;;;;;;;6.24;100.00;99182.88;5222283;28;20028;-73
2022/09/29 03:22:06;;;;;;;4.78;3.30;;;;;;;6.18;100.00;99177.91;5222560;28;20037;-73
2022/09/29 03:24:36;;;;;;;5.63;3.83;;;;;;;6.10;100.00;99188.59;5222268;28;20407;-73
2022/09/29 03:27:08;;;;;;;6.38;3.60;;;;;;;6.07;100.00;99187.88;5223123;28;20028;-73
2022/09/29 03:29:39;;;;;;;5.55;3.78;;;;;;;6.10;100.00;99190.34;5230165;28;20402;-74
2022/09/29 03:32:09;;;;;;;4.88;2.92;;;;;;;6.20;100.00;99191.66;5221979;28;20029;-73
2022/09/29 03:34:39;;;;;;;4.68;3.30;;;;;;;6.12;100.00;99191.13;5221904;28;20032;-73
2022/09/29 03:37:09;;;;;;;6.32;4.03;;;;;;;6.16;100.00;99198.72;5221421;28;20107;-73
2022/09/29 03:39:40;;;;;;;6.78;4.03;;;;;;;6.13;100.00;99200.59;5221996;28;20351;-73
2022/09/29 03:42:10;;;;;;;6.40;4.22;;;;;;;6.18;100.00;99198.66;5222540;28;20110;-74
2022/09/29 03:44:41;;;;;;;5.35;3.95;;;;;;;6.25;100.00;99184.53;5225739;28;20036;-73
2022/09/29 03:47:11;;;;;;;5.50;3.60;;;;;;;6.33;100.00;99193.72;5230617;28;20029;-73
2022/09/29 03:49:41;;;;;;;7.00;3.90;;;;;;;6.25;100.00;99197.53;5221601;28;20059;-73
2022/09/29 03:52:11;;;;;;;6.10;3.70;;;;;;;6.22;100.00;99208.03;5223883;28;20414;-73
2022/09/29 03:54:42;;;;;;;6.38;3.70;;;;;;;6.11;100.00;99205.00;5228341;28;20083;-73
2022/09/29 03:57:12;;;;;;;7.13;3.80;;;;;;;6.05;100.00;99213.84;5226506;28;20028;-73
2022/09/29 03:59:42;;;;;;;6.88;4.30;;;;;;;6.01;100.00;99212.28;5228867;28;20475;-73
2022/09/29 04:02:13;;;;;;;5.90;3.92;;;;;;;6.00;100.00;99213.19;5221517;28;20037;-73
2022/09/29 04:04:43;;;;;;;6.55;3.70;;;;;;;5.90;100.00;99208.44;5221014;28;20028;-73
2022/09/29 04:07:13;;;;;;;6.35;3.92;;;;;;;5.91;100.00;99210.94;5198662;28;20479;-73
2022/09/29 04:09:44;;;;;;;6.03;3.78;;;;;;;5.98;100.00;99214.16;5218801;28;20035;-73
2022/09/29 04:12:14;;;;;;;5.63;3.63;;;;;;;6.01;100.00;99211.44;5220868;28;20134;-73
2022/09/29 04:14:44;;;;;;;4.88;3.33;;;;;;;5.94;100.00;99220.38;5215360;28;20029;-73
2022/09/29 04:17:15;;;;;;;6.38;3.70;;;;;;;5.81;100.00;99220.00;5209770;28;20060;-73
2022/09/29 04:19:45;;;;;;;5.63;3.60;;;;;;;5.69;100.00;99224.75;5207121;28;20048;-73
2022/09/29 04:22:18;;;;;;;6.60;4.18;;;;;;;5.65;100.00;99233.53;5221393;28;20029;-73
2022/09/29 04:24:49;;;;;;;7.13;3.80;;;;;;;5.68;100.00;99233.44;5228244;28;20028;-73
2022/09/29 04:27:19;;;;;;;5.65;3.70;;;;;;;5.68;100.00;99231.69;5227450;28;20460;-73
2022/09/29 04:29:50;;;;;;;6.47;3.53;;;;;;;5.69;100.00;99224.75;5228041;28;20033;-73
2022/09/29 04:32:21;;;;;;;8.20;3.90;;;;;;;5.66;100.00;99230.06;5220902;28;20083;-73
2022/09/29 04:34:51;;;;;;;8.43;4.13;;;;;;;5.62;100.00;99228.47;5221294;28;20041;-73
2022/09/29 04:37:21;;;;;;;6.47;4.10;;;;;;;5.56;100.00;99234.72;5219927;28;20033;-73
2022/09/29 04:39:53;;;;;;;6.57;4.00;;;;;;;5.57;100.00;99236.41;5220707;28;20036;-73
2022/09/29 04:42:23;;;;;;;8.30;4.13;;;;;;;5.54;100.00;99240.91;5220565;28;20040;-73
2022/09/29 04:44:53;;;;;;;6.68;4.65;;;;;;;5.45;100.00;99231.72;5201931;28;20542;-74
2022/09/29 04:47:24;;;;;;;7.70;4.47;;;;;;;5.48;100.00;99230.72;5220315;28;20031;-73
2022/09/29 04:49:54;;;;;;;5.97;4.13;;;;;;;5.48;100.00;99235.91;5220241;28;20036;-73
2022/09/29 04:52:24;;;;;;;8.40;4.20;;;;;;;5.57;100.00;99235.59;5227633;28;20040;-73
2022/09/29 04:54:54;;;;;;;7.60;4.10;;;;;;;5.40;100.00;99240.53;5226460;28;20549;-73
2022/09/29 04:57:25;;;;;;;5.68;3.95;;;;;;;5.33;100.00;99246.81;5227503;28;20040;-73
2022/09/29 04:59:55;;;;;;;5.68;3.83;;;;;;;5.37;100.00;99240.66;5226444;28;20119;-73
2022/09/29 05:02:26;;;;;;;7.25;4.40;;;;;;;5.33;100.00;99246.81;5220688;28;20087;-73
2022/09/29 05:04:56;;;;;;;6.05;4.00;;;;;;;5.38;100.00;99249.25;5201732;28;20508;-73
2022/09/29 05:07:27;;;;;;;6.18;3.90;;;;;;;5.27;100.00;99254.81;5220022;28;20029;-73
2022/09/29 05:09:57;;;;;;;6.78;4.15;;;;;;;5.28;100.00;99259.09;5219742;28;20032;-73
2022/09/29 05:12:28;;;;;;;6.38;4.32;;;;;;;5.11;100.00;99245.91;5220538;28;20024;-73
2022/09/29 05:14:58;;;;;;;7.50;4.25;;;;;;;5.07;100.00;99249.50;5220208;28;20024;-73
2022/09/29 05:17:28;;;;;;;7.40;4.80;;;;;;;5.10;100.00;99251.97;5221886;28;20402;-73
2022/09/29 05:19:59;;;;;;;9.77;4.68;;;;;;;5.16;100.00;99253.53;5215449;28;20511;-73
2022/09/29 05:22:30;;;;;;;6.22;4.50;;;;;;;5.01;100.00;99254.88;5214854;28;20059;-73
2022/09/29 05:25:00;;;;;;;8.95;4.97;;;;;;;5.00;100.00;99253.19;5216228;28;20086;-72
2022/09/29 05:27:30;;;;;;;6.85;4.65;;;;;;;4.93;100.00;99251.72;5217663;28;20028;-72
2022/09/29 05:30:01;;;;;;;9.25;4.97;;;;;;;4.95;100.00;99244.75;5212660;28;20022;-73
2022/09/29 05:32:31;;;;;;;6.63;4.55;;;;;;;4.94;100.00;99252.56;5218161;28;20485;-73
2022/09/29 05:35:02;;;;;;;11.30;4.65;;;;;;;5.17;100.00;99255.19;5228163;28;20021;-73
2022/09/29 05:37:38;;;;;;;7.35;4.38;;;;;;;4.98;100.00;99254.97;5194069;28;20033;-73
2022/09/29 05:40:09;;;;;;;8.25;5.15;;;;;;;5.05;100.00;99258.22;5227063;28;20580;-73
2022/09/29 05:42:39;;;;;;;8.93;5.10;;;;;;;5.23;100.00;99258.44;5219725;28;20033;-73
2022/09/29 05:45:10;;;;;;;8.23;5.00;;;;;;;5.44;100.00;99260.25;5217186;28;20028;-73
2022/09/29 05:47:42;;;;;;;6.75;4.55;;;;;;;5.57;100.00;99258.91;5193297;28;20029;-73
2022/09/29 05:50:13;;;;;;;8.88;5.07;;;;;;;5.48;100.00;99256.63;5211510;28;20056;-73
2022/09/29 05:52:47;;;;;;;9.00;4.75;;;;;;;5.59;100.00;99252.75;5231180;28;20025;-73
2022/09/29 05:55:18;;;;;;;8.07;4.78;;;;;;;5.64;100.00;99255.19;5228668;28;20021;-73
2022/09/29 05:57:48;;;;;;;7.43;4.85;;;;;;;5.62;100.00;99257.00;5229561;28;20403;-73
2022/09/29 06:00:19;;;;;;;6.97;4.85;;;;;;;5.87;100.00;99258.63;5229287;28;20029;-73
2022/09/29 06:02:49;;;;;;;11.82;5.05;;;;;;;5.84;100.00;99263.09;5226519;28;20040;-73
2022/09/29 06:05:19;;;;;;;8.90;5.22;;;;;;;5.87;100.00;99262.97;5223351;28;20056;-73
2022/09/29 06:07:51;;;;;;;8.88;5.40;;;;;;;5.90;100.00;99265.47;5223209;28;20136;-73
2022/09/29 06:10:21;;;;;;;9.38;5.85;;;;;;;5.98;100.00;99263.41;5223445;28;20437;-73
2022/09/29 06:12:51;;;;;;;9.82;5.50;;;;;;;6.05;100.00;99270.06;5223180;28;20036;-73
2022/09/29 06:15:22;;;;;;;8.73;5.20;;;;;;;6.17;100.00;99264.38;5223171;28;20305;-73
2022/09/29 06:17:57;;;;;;;8.48;5.63;;;;;;;6.15;100.00;99261.88;5222809;28;20045;-73
2022/09/29 06:20:27;;;;;;;12.85;6.45;;;;;;;6.01;100.00;99266.75;5223230;28;20192;-73
2022/09/29 06:22:58;;;;;;;10.30;5.88;;;;;;;6.14;100.00;99264.50;5232200;28;20509;-73
2022/09/29 06:25:28;;;;;;;11.20;6.28;;;;;;;6.34;100.00;99256.78;5225883;28;20634;-73
2022/09/29 06:27:58;;;;;;;10.32;6.43;;;;;;;6.44;100.00;99263.31;5219238;28;20025;-73
2022/09/29 06:30:29;;;;;;;9.63;6.53;;;;;;;6.50;100.00;99257.88;5227161;28;20033;-73
2022/09/29 06:32:59;;;;;;;12.27;6.60;;;;;;;6.60;100.00;99264.41;5225952;28;20056;-73
2022/09/29 06:38:18;;;;;;;10.25;7.10;;;;;;;7.05;100.00;99252.09;5220518;28;20482;-73
2022/09/29 06:40:48;;;;;;;13.40;7.35;;;;;;;7.22;100.00;99258.25;5218839;28;20025;-73
2022/09/29 06:43:19;;;;;;;12.77;7.35;;;;;;;7.35;100.00;99252.44;5210896;28;20479;-73
2022/09/29 06:45:49;;;;;;;12.13;7.38;;;;;;;7.44;100.00;99254.66;5212983;28;20020;-73
2022/09/29 06:48:19;;;;;;;13.73;8.05;;;;;;;7.55;100.00;99251.59;5211887;28;20384;-72
2022/09/29 06:50:49;;;;;;;11.82;8.00;;;;;;;7.76;100.00;99253.22;5214526;28;20502;-73
2022/09/29 06:53:20;;;;;;;14.57;7.32;;;;;;;7.87;100.00;99249.22;5234405;28;20363;-73
2022/09/29 06:55:59;;;;;;;13.60;8.60;;;;;;;8.04;100.00;99264.06;5221841;28;20090;-73
2022/09/29 06:58:30;;;;;;;13.52;8.95;;;;;;;8.04;100.00;99261.44;5224965;28;20067;-73
2022/09/29 07:01:02;;;;;;;14.65;9.02;;;;;;;8.27;100.00;99266.44;5209896;28;20057;-73
2022/09/29 07:03:34;;;;;;;16.02;8.68;;;;;;;8.38;100.00;99267.63;5213481;28;20036;-73
2022/09/29 07:06:06;;;;;;;14.52;9.27;;;;;;;8.57;100.00;99262.38;5210179;28;20031;-72
2022/09/29 07:08:38;;;;;;;17.30;10.25;;;;;;;8.65;100.00;99263.72;5210689;28;20508;-72
2022/09/29 07:11:09;;;;;;;14.32;9.65;;;;;;;8.84;100.00;99269.69;5209476;28;20116;-73
2022/09/29 07:13:39;;;;;;;16.05;9.65;;;;;;;9.91;100.00;99267.53;5217199;28;20455;-73
2022/09/29 07:16:12;;;;;;;11.13;7.78;;;;;;;11.70;99.57;99253.59;5209797;28;20033;-73
2022/09/29 07:18:43;;;;;;;12.05;7.80;;;;;;;12.04;90.62;99254.06;5191480;28;20022;-73
2022/09/29 07:21:18;;;;;;;10.68;7.28;;;;;;;13.78;86.30;99258.09;5210887;28;20024;-73
2022/09/29 07:23:48;;;;;;;9.88;6.40;;;;;;;15.96;78.40;99246.03;5196450;28;20021;-74
2022/09/29 07:26:19;;;;;;;7.70;5.97;;;;;;;16.25;77.94;99244.59;5223610;28;20032;-73
2022/09/29 07:28:49;;;;;;;12.27;6.30;;;;;;;16.41;71.90;99251.16;5228803;28;20430;-74
2022/09/29 07:31:20;;;;;;;8.75;6.68;;;;;;;16.09;77.01;99252.88;5210765;28;20041;-74
2022/09/29 07:33:51;;;;;;;7.45;6.03;;;;;;;16.42;72.41;99255.47;5215603;28;20051;-73
2022/09/29 07:36:22;;;;;;;7.97;5.90;;;;;;;16.31;77.79;99262.53;5215054;28;20486;-73
2022/09/29 07:38:52;;;;;;;9.20;5.55;;;;;;;17.12;72.41;99264.63;5212612;28;20055;-72
2022/09/29 07:41:23;;;;;;;9.13;5.77;;;;;;;17.21;72.89;99263.84;5215273;28;20211;-72
2022/09/29 07:43:54;;;;;;;6.40;5.57;;;;;;;16.58;73.69;99269.09;5221799;28;20653;-72
2022/09/29 07:46:25;;;;;;;9.00;6.18;;;;;;;16.71;75.48;99264.53;5244928;22;20045;-76
2022/09/29 07:48:55;;;;;;;8.93;5.85;;;;;;;17.76;74.21;99268.81;5210595;28;20148;-75
2022/09/29 07:51:25;;;;;;;8.15;6.38;;;;;;;16.73;74.80;99261.78;5194530;28;21457;-75
2022/09/29 07:54:00;;;;;;;9.95;7.10;;;;;;;16.11;79.11;99268.56;5212445;28;20502;-75
2022/09/29 07:56:31;;;;;;;9.07;6.75;;;;;;;16.93;74.46;99267.06;5212115;28;20033;-76
2022/09/29 07:59:03;;;;;;;11.50;7.13;;;;;;;16.54;73.03;99266.88;5209669;28;20029;-77
2022/09/29 08:01:34;;;;;;;10.57;6.70;;;;;;;17.06;74.20;99270.38;5211022;28;20023;-76
2022/09/29 08:04:04;;;;;;;8.60;6.38;;;;;;;16.47;80.05;99277.06;5213667;28;20486;-75
2022/09/29 08:06:35;;;;;;;7.53;5.70;;;;;;;17.15;75.73;99281.03;5208824;28;20175;-75
2022/09/29 08:09:05;;;;;;;7.63;6.03;;;;;;;19.14;68.68;99258.06;5212813;28;20028;-77
2022/09/29 08:11:37;;;;;;;10.90;7.00;;;;;;;19.49;67.11;99271.59;5212785;28;20103;-76
2022/09/29 08:14:10;;;;;;;12.77;6.70;;;;;;;18.20;70.30;99276.41;5209163;28;20053;-77
2022/09/29 08:16:40;;;;;;;11.82;7.20;;;;;;;16.42;76.23;99281.03;5213204;28;20287;-78
2022/09/29 08:19:10;;;;;;;11.47;7.07;;;;;;;17.30;73.79;99279.75;5203445;28;20025;-78
2022/09/29 08:21:40;;;;;;;12.30;7.57;;;;;;;16.91;74.92;99282.19;5207727;28;20394;-78
2022/09/29 08:24:12;;;;;;;16.73;7.87;;;;;;;16.48;78.33;99289.28;5212218;28;20091;-78
2022/09/29 08:26:42;;;;;;;10.07;7.50;;;;;;;16.98;75.13;99284.22;5204768;28;20295;-77
2022/09/29 08:29:13;;;;;;;11.38;6.80;;;;;;;17.18;76.30;99286.03;5208126;28;20040;-79
2022/09/29 08:31:44;;;;;;;12.50;7.28;;;;;;;16.43;80.06;99287.97;5207314;28;20101;-78
2022/09/29 08:34:15;;;;;;;10.60;7.65;;;;;;;18.11;73.97;99295.69;5205031;28;20025;-78
2022/09/29 08:36:45;;;;;;;10.30;7.18;;;;;;;19.71;70.32;99287.19;5206947;28;20025;-78
2022/09/29 08:39:16;;;;;;;12.07;7.55;;;;;;;17.90;70.98;99300.19;5210506;28;20021;-77
2022/09/29 08:41:55;;;;;;;10.70;7.40;;;;;;;17.32;72.18;99301.59;5208821;28;20033;-77
2022/09/29 08:44:51;;;;;;;12.75;7.03;;;;;;;17.98;71.88;99303.03;5209313;28;20118;-78
2022/09/29 08:47:29;;;;;;;16.38;7.57;;;;;;;17.81;72.17;99307.09;5206207;28;20032;-76
2022/09/29 08:50:15;;;;;;;9.13;6.75;;;;;;;16.81;73.50;99307.69;5208174;28;20024;-77
2022/09/29 08:52:53;;;;;;;10.05;7.43;;;;;;;15.98;76.82;99313.50;5208993;28;20021;-76
2022/09/29 08:55:52;;;;;;;13.50;8.52;;;;;;;14.52;85.03;99327.25;5219701;28;20024;-76
2022/09/29 08:58:23;;;;;;;10.23;6.95;;;;;;;14.78;83.35;99328.84;5224885;28;20033;-78
2022/09/29 09:00:56;;;;;;;10.77;7.72;;;;;;;13.71;88.35;99333.81;5215206;28;20563;-77
2022/09/29 09:03:52;;;;;;;9.48;6.97;;;;;;;15.10;82.23;99318.50;5222064;28;20485;-77
2022/09/29 09:06:43;;;;;;;9.82;6.78;;;;;;;14.92;84.03;99327.75;5212907;28;20021;-77
2022/09/29 09:09:22;;;;;;;9.52;6.90;;;;;;;15.21;80.49;99325.59;5210526;28;20029;-78
2022/09/29 09:12:21;;;;;;;9.73;6.40;;;;;;;15.65;80.84;99326.59;5207221;28;20056;-78
2022/09/29 09:15:17;;;;;;;11.13;6.55;;;;;;;15.75;79.51;99317.06;5207774;28;20314;-78
2022/09/29 09:18:12;;;;;;;9.93;6.18;;;;;;;15.99;81.10;99320.44;5208747;28;20025;-76
2022/09/29 09:21:01;;;;;;;9.73;6.03;;;;;;;15.44;80.95;99322.97;5207114;28;20424;-76
2022/09/29 09:23:54;;;;;;;8.25;5.80;;;;;;;14.79;82.54;99327.91;5207120;28;20041;-76
2022/09/29 09:26:36;;;;;;;9.30;5.78;;;;;;;14.57;83.41;99330.41;5210684;28;20205;-77
2022/09/29 09:29:18;;;;;;;7.60;5.68;;;;;;;14.76;82.44;99336.03;5208049;28;20103;-78
2022/09/29 09:32:14;;;;;;;9.57;5.57;;;;;;;15.06;83.43;99332.84;5210186;28;20020;-78
2022/09/29 09:34:52;;;;;;;6.47;4.15;;;;;;;15.09;81.35;99327.34;5206417;28;20499;-77
2022/09/29 09:37:30;;;;;;;6.35;4.10;;;;;;;15.22;80.38;99341.25;5208657;28;20040;-77
2022/09/29 09:40:17;;;;;;;6.35;4.22;;;;;;;15.13;82.84;99336.69;5207191;28;20025;-78
2022/09/29 09:43:03;;;;;;;7.85;4.32;;;;;;;15.15;81.92;99339.22;5212360;28;20036;-77
2022/09/29 09:45:47;;;;;;;7.20;4.47;;;;;;;15.00;81.48;99335.91;5211149;28;20013;-76
2022/09/29 09:48:29;;;;;;;7.22;4.45;;;;;;;15.02;82.27;99341.06;5208905;28;20041;-78
2022/09/29 09:51:58;;;;;;;7.15;4.65;;;;;;;15.03;82.51;99343.56;5212697;28;20075;-75
2022/09/29 09:54:36;;;;;;;8.35;5.05;;;;;;;14.96;84.58;99344.97;5151871;28;20046;-77
2022/09/29 09:57:28;;;;;;;7.50;4.50;;;;;;;14.93;82.74;99349.63;5154851;28;20502;-75
2022/09/29 10:00:05;;;;;;;8.00;4.82;;;;;;;14.15;83.13;99350.00;5193546;28;20044;-77
2022/09/29 10:02:44;;;;;;;9.32;5.15;;;;;;;13.69;86.91;99350.59;5206312;28;20028;-76
2022/09/29 10:05:20;;;;;;;10.02;5.00;;;;;;;14.17;87.05;99339.41;5209939;28;20434;-76
2022/09/29 10:07:52;;;;;;;7.32;5.13;;;;;;;14.50;85.83;99344.91;5208574;28;20033;-76
2022/09/29 10:10:25;;;;;;;11.75;5.75;;;;;;;14.66;85.37;99342.88;5211691;28;20028;-77
2022/09/29 10:13:02;;;;;;;10.75;5.25;;;;;;;14.60;87.45;99346.78;5213314;28;20041;-77
2022/09/29 10:15:39;;;;;;;8.88;5.25;;;;;;;14.66;87.00;99345.50;5209582;28;20461;-77
2022/09/29 10:18:21;;;;;;;7.85;5.30;;;;;;;14.46;88.51;99343.47;5210309;28;20090;-76
2022/09/29 10:20:52;;;;;;;8.13;5.20;;;;;;;14.78;84.21;99336.75;5214890;28;20429;-76
2022/09/29 10:23:33;;;;;;;8.63;5.13;;;;;;;14.83;85.89;99346.81;5217949;28;20021;-77
2022/09/29 10:26:19;;;;;;;6.82;4.32;;;;;;;14.95;85.90;99343.31;5213572;28;20020;-77
2022/09/29 10:28:59;;;;;;;5.35;3.55;;;;;;;15.34;83.40;99337.75;5206756;28;20060;-78
2022/09/29 10:31:32;;;;;;;7.25;3.88;;;;;;;15.67;83.94;99339.69;5214574;28;20029;-77
2022/09/29 10:34:15;;;;;;;7.38;3.72;;;;;;;15.64;81.16;99342.50;5214993;28;20028;-76
2022/09/29 10:37:19;;;;;;;5.20;3.45;;;;;;;15.70;82.38;99344.72;5213639;28;20405;-76
2022/09/29 10:39:50;;;;;;;6.38;3.25;;;;;;;15.39;82.81;99346.16;5207745;28;20033;-77
2022/09/29 10:42:23;;;;;;;5.47;2.90;;;;;;;15.31;82.92;99343.25;5212473;28;20079;-78
2022/09/29 10:45:09;;;;;;;4.20;2.08;;;;;;;15.11;81.03;99349.13;5212753;28;20112;-77
2022/09/29 10:47:43;;;;;;;3.90;2.20;;;;;;;14.82;81.40;99358.28;5210439;28;20048;-77
2022/09/29 10:50:22;;;;;;;4.63;2.15;;;;;;;14.46;84.44;99354.81;5216004;28;20033;-77
2022/09/29 10:53:02;;;;;;;3.72;2.03;;;;;;;14.24;83.39;99361.69;5217554;28;20029;-77
2022/09/29 10:55:35;;;;;;;3.80;2.03;;;;;;;14.07;86.42;99356.75;5208509;28;20033;-77
2022/09/29 10:58:30;;;;;;;3.17;1.98;;;;;;;14.26;87.03;99367.69;5216287;28;20378;-75
2022/09/29 11:01:14;;;;;;;3.40;1.87;;;;;;;14.52;85.03;99364.06;5209514;28;20518;-76
2022/09/29 11:04:12;;;;;;;3.05;1.48;;;;;;;14.72;84.37;99363.47;5211203;28;20276;-76
2022/09/29 11:06:42;;;;;;;2.08;1.20;;;;;;;14.92;81.52;99361.94;5209067;28;20500;-77
2022/09/29 11:09:12;;;;;;;2.40;0.95;;;;;;;14.82;81.20;99365.34;5213339;28;20146;-77
2022/09/29 11:11:46;;;;;;;2.20;1.10;;;;;;;15.14;79.23;99369.94;5209049;28;20112;-76
2022/09/29 11:14:37;;;;;;;2.67;1.17;;;;;;;15.22;79.09;99364.13;5211321;28;20021;-77
2022/09/29 11:17:30;;;;;;;1.92;1.30;;;;;;;15.10;78.39;99368.50;5209786;28;20024;-76
2022/09/29 11:20:04;;;;;;;2.38;1.55;;;;;;;15.23;79.15;99369.28;5206531;28;20678;-77
2022/09/29 11:23:06;;;;;;;2.53;1.30;;;;;;;15.06;79.86;99374.94;5203302;28;20268;-76
2022/09/29 11:26:00;;;;;;;1.92;1.20;;;;;;;15.07;77.54;99368.72;5240792;28;20267;-77
2022/09/29 11:28:53;;;;;;;4.35;1.48;;;;;;;15.13;78.94;99368.28;5207173;28;20033;-76
2022/09/29 11:31:42;;;;;;;2.83;1.20;;;;;;;15.29;80.25;99360.97;5210538;28;20487;-76
2022/09/29 11:34:40;;;;;;;5.25;1.50;;;;;;;15.30;77.99;99369.69;5209589;28;20025;-76
2022/09/29 11:37:23;;;;;;;2.40;1.38;;;;;;;15.21;78.70;99368.53;5218217;28;20021;-76
2022/09/29 11:40:10;;;;;;;2.17;1.25;;;;;;;15.29;79.08;99371.50;5213380;28;20071;-77
2022/09/29 11:43:04;;;;;;;2.33;1.20;;;;;;;15.16;77.59;99360.16;5217772;28;20032;-77
2022/09/29 11:45:46;;;;;;;3.60;1.33;;;;;;;15.25;77.24;99367.38;5214063;28;20010;-77
2022/09/29 11:48:29;;;;;;;2.50;1.15;;;;;;;15.25;78.11;99364.75;5208814;28;20032;-76
2022/09/29 11:51:17;;;;;;;2.00;1.30;;;;;;;15.08;76.38;99367.78;5211105;28;20441;-76
2022/09/29 11:54:20;;;;;;;2.75;1.10;;;;;;;15.23;79.06;99363.19;5209388;28;20531;-76
2022/09/29 11:57:08;;;;;;;2.72;1.30;;;;;;;15.41;78.36;99361.84;5199316;28;20029;-77
2022/09/29 12:00:06;;;;;;;3.75;1.10;;;;;;;15.52;77.47;99365.34;5206122;28;20040;-78
2022/09/29 12:03:15;;;;;;;1.55;0.90;;;;;;;15.54;78.09;99371.34;5209203;28;20348;-77
2022/09/29 12:06:15;;;;;;;2.00;1.10;;;;;;;15.46;75.42;99370.22;5210066;28;20138;-77
2022/09/29 12:09:26;;;;;;;2.00;1.20;;;;;;;15.30;75.54;99364.41;5209225;28;20209;-78
2022/09/29 12:12:33;;;;;;;2.83;1.20;;;;;;;15.51;78.55;99360.22;5155979;28;20041;-77
2022/09/29 12:15:24;;;;;;;;;;;;;;;15.57;76.78;99365.00;5211230;28;20021;-77
2022/09/29 12:18:02;;;;;;;4.32;2.20;;;;;;;15.27;78.33;99368.09;5225421;28;20632;-77